Time;durP1;ratioP1;P1;durP2;ratioP2;P2;SDS_P1;SDS_P2;PMS_P1;PMS_P2;Temp;Humidity;BMP_temperature;BMP_pressure;BME280_temperature;BME280_humidity;BME280_pressure;Samples;Min_cycle;Max_cycle;Signal;HPM_P1;HPM_P2
2021/06/05 00:02:07;;;;;;;14.57;9.27;;;;;;;16.62;55.97;100017.61;513041;1093;117187;-59
2021/06/05 00:12:16;;;;;;;7.67;6.80;;;;;;;16.32;55.06;100030.61;503570;1093;10002249;-60
2021/06/05 00:22:22;;;;;;;5.78;5.13;;;;;;;16.14;55.63;100011.75;513031;1092;117285;-59
2021/06/05 00:32:27;;;;;;;9.03;6.27;;;;;;;16.09;55.83;100005.97;512879;1092;116629;-61
2021/06/05 00:42:32;;;;;;;7.27;6.10;;;;;;;16.04;56.18;100008.16;512233;1092;115783;-60
2021/06/05 00:52:38;;;;;;;7.93;6.87;;;;;;;15.92;56.23;100000.23;512931;1092;116426;-59
2021/06/05 01:02:42;;;;;;;7.20;6.17;;;;;;;15.86;56.37;99987.44;515561;1092;115907;-59
2021/06/05 01:12:53;;;;;;;7.20;6.50;;;;;;;15.76;56.32;99971.47;512497;1093;116002;-59
2021/06/05 01:23:12;;;;;;;6.50;5.90;;;;;;;15.82;57.40;99970.13;529809;1093;115871;-60
2021/06/05 01:33:20;;;;;;;5.97;5.47;;;;;;;15.86;57.98;99970.73;520257;1093;116540;-61
2021/06/05 01:43:28;;;;;;;7.35;5.55;;;;;;;15.81;58.60;99957.86;517396;1092;117447;-60
2021/06/05 01:53:39;;;;;;;8.73;5.55;;;;;;;15.79;59.25;99957.15;516755;1092;116408;-60
2021/06/05 02:03:44;;;;;;;7.83;7.07;;;;;;;15.64;59.13;99948.63;529836;1093;115837;-60
2021/06/05 02:13:53;;;;;;;8.60;6.83;;;;;;;15.58;59.21;99944.66;523469;1092;116948;-59
2021/06/05 02:24:02;;;;;;;8.83;6.70;;;;;;;15.58;59.06;99942.02;513764;1092;116874;-60
2021/06/05 02:34:10;;;;;;;6.73;6.10;;;;;;;15.38;59.60;99964.77;526112;1093;115110;-59
2021/06/05 02:44:18;;;;;;;10.43;6.88;;;;;;;15.17;60.43;99957.54;529847;1093;116556;-60
2021/06/05 02:54:24;;;;;;;8.07;7.27;;;;;;;15.04;60.54;99954.16;529153;1093;116776;-60
2021/06/05 03:04:29;;;;;;;10.47;7.30;;;;;;;14.84;60.85;99953.88;525283;1093;116774;-60
2021/06/05 03:14:34;;;;;;;9.67;7.73;;;;;;;14.57;61.56;99950.53;529846;1092;115922;-60
2021/06/05 03:24:39;;;;;;;17.93;8.70;;;;;;;14.55;62.07;99936.60;529901;1093;116071;-59
2021/06/05 03:34:45;;;;;;;10.50;9.40;;;;;;;15.18;61.67;99945.14;529862;1092;116269;-60
2021/06/05 03:44:49;;;;;;;10.50;8.73;;;;;;;16.03;60.76;99943.73;529175;1092;117688;-60
2021/06/05 03:54:56;;;;;;;9.03;8.20;;;;;;;18.97;59.61;99936.91;526121;1092;115827;-59
2021/06/05 04:05:01;;;;;;;10.57;7.93;;;;;;;24.76;49.32;99919.72;512718;1092;115948;-60
2021/06/05 04:15:09;;;;;;;10.67;7.60;;;;;;;22.17;47.89;99922.88;514305;1092;116211;-59
2021/06/05 04:25:15;;;;;;;10.10;7.27;;;;;;;20.51;49.39;99923.98;525951;1092;117194;-59
2021/06/05 04:35:21;;;;;;;7.90;7.23;;;;;;;28.05;44.67;99913.78;519833;1092;116548;-60
2021/06/05 04:45:26;;;;;;;10.90;7.20;;;;;;;34.99;36.12;99903.96;523621;1092;116385;-61
2021/06/05 04:55:31;;;;;;;8.73;5.80;;;;;;;38.98;28.84;99886.59;529270;1092;116402;-61
2021/06/05 05:05:37;;;;;;;6.03;5.33;;;;;;;36.24;26.63;99893.23;529350;1093;116394;-59
2021/06/05 05:15:43;;;;;;;7.00;5.70;;;;;;;32.82;28.51;99885.52;516450;1092;115720;-60
2021/06/05 05:25:48;;;;;;;6.70;6.10;;;;;;;37.55;26.46;99881.80;529957;1092;116269;-61
2021/06/05 05:35:54;;;;;;;4.18;3.80;;;;;;;39.89;22.58;99890.98;529285;1092;116169;-61
2021/06/05 05:45:59;;;;;;;4.43;4.03;;;;;;;43.09;19.42;99886.52;530543;1092;116530;-60
2021/06/05 05:56:09;;;;;;;4.85;3.35;;;;;;;44.50;17.44;99884.69;530646;1092;116235;-61
2021/06/05 06:06:15;;;;;;;4.47;3.43;;;;;;;45.92;16.42;99891.17;529769;1092;116868;-61
2021/06/05 06:16:20;;;;;;;3.93;3.30;;;;;;;38.17;17.19;99900.20;530605;1092;172820;-61
2021/06/05 06:26:29;;;;;;;3.90;3.63;;;;;;;32.03;21.59;99906.51;530610;1093;116026;-61
2021/06/05 06:36:34;;;;;;;5.80;4.60;;;;;;;29.33;24.69;99911.77;529280;1092;116022;-60
2021/06/05 06:46:42;;;;;;;5.20;4.70;;;;;;;28.82;26.26;99909.88;530529;1092;118331;-60
2021/06/05 06:56:47;;;;;;;5.10;4.70;;;;;;;33.46;23.73;99908.33;529153;1093;116070;-61
2021/06/05 07:06:52;;;;;;;6.97;6.10;;;;;;;31.17;24.72;99919.13;529900;1093;116765;-60
2021/06/05 07:16:57;;;;;;;8.85;7.80;;;;;;;28.92;27.03;99908.38;523397;1093;116926;-59
2021/06/05 07:27:02;;;;;;;9.70;8.90;;;;;;;27.86;28.46;99915.42;511771;1093;117216;-59
2021/06/05 07:37:11;;;;;;;10.90;8.90;;;;;;;28.49;28.07;99908.83;512654;1092;117289;-58
2021/06/05 07:47:16;;;;;;;8.77;7.77;;;;;;;29.54;27.69;99899.02;512976;1092;116592;-57
2021/06/05 07:57:23;;;;;;;9.57;8.57;;;;;;;30.56;26.88;99889.09;528697;1093;118516;-62
2021/06/05 08:07:28;;;;;;;8.27;7.37;;;;;;;30.02;25.86;99877.88;530475;1092;116522;-61
2021/06/05 08:17:34;;;;;;;8.17;7.37;;;;;;;29.32;27.12;99872.25;525370;1093;116089;-60
2021/06/05 08:27:39;;;;;;;8.53;7.67;;;;;;;27.87;28.28;99869.33;521241;1092;116851;-60
2021/06/05 08:37:44;;;;;;;10.20;8.23;;;;;;;28.53;28.55;99862.29;530419;1092;115885;-60
2021/06/05 08:47:50;;;;;;;8.23;7.43;;;;;;;29.43;27.93;99853.69;529042;1093;117730;-60
2021/06/05 08:57:59;;;;;;;9.93;7.40;;;;;;;28.32;28.30;99839.06;530606;1092;116888;-60
2021/06/05 09:08:06;;;;;;;9.33;8.07;;;;;;;28.46;28.64;99839.89;530591;1092;116228;-61
2021/06/05 09:18:13;;;;;;;9.20;7.73;;;;;;;27.50;29.71;99831.92;523301;1093;116148;-59
2021/06/05 09:28:22;;;;;;;;;;;;;;;27.10;30.57;99829.94;528441;1093;116515;-60
2021/06/05 09:38:34;;;;;;;11.50;6.90;;;;;;;26.88;30.85;99823.00;530093;1092;101825;-60
2021/06/05 09:48:42;;;;;;;9.28;6.60;;;;;;;26.78;31.03;99817.93;499877;1093;10002185;-61
2021/06/05 09:58:59;;;;;;;5.57;4.93;;;;;;;26.61;30.35;99820.13;527986;1092;116269;-60
2021/06/05 10:09:19;;;;;;;7.50;6.05;;;;;;;26.36;31.01;99809.83;523597;1092;116629;-60
2021/06/05 10:19:38;;;;;;;7.33;4.43;;;;;;;26.19;30.93;99803.92;517956;1091;116796;-66
2021/06/05 10:29:47;;;;;;;6.40;4.60;;;;;;;25.26;32.39;99803.64;525802;1093;116135;-62
2021/06/05 10:39:54;;;;;;;4.13;3.33;;;;;;;25.35;31.11;99801.70;520609;1092;116945;-60
2021/06/05 10:50:04;;;;;;;3.85;3.55;;;;;;;25.50;30.95;99803.52;526438;1092;116788;-60
2021/06/05 11:00:29;;;;;;;6.80;3.37;;;;;;;25.01;30.65;99795.92;529220;1092;116949;-61
2021/06/05 11:10:48;;;;;;;4.57;3.70;;;;;;;25.30;31.08;99790.66;524719;1093;116825;-61
2021/06/05 11:20:53;;;;;;;6.20;3.40;;;;;;;25.18;30.95;99791.16;529063;1092;115824;-62
2021/06/05 11:30:59;;;;;;;6.67;4.20;;;;;;;24.92;32.29;99786.30;530373;1092;117055;-61
2021/06/05 11:41:06;;;;;;;8.17;4.90;;;;;;;25.13;33.69;99780.17;530897;1093;116569;-60
2021/06/05 11:51:25;;;;;;;;;;;;;;;24.45;35.08;99775.77;519845;1092;116569;-62
2021/06/05 12:01:32;;;;;;;5.17;4.50;;;;;;;23.77;35.86;99783.77;512776;1093;103573;-61
2021/06/05 12:11:41;;;;;;;6.30;4.73;;;;;;;24.01;35.62;99774.68;524206;1092;116239;-58
2021/06/05 12:21:46;;;;;;;4.17;3.77;;;;;;;24.36;35.50;99758.11;529732;1092;116306;-61
2021/06/05 12:31:53;;;;;;;3.47;2.97;;;;;;;24.24;33.72;99754.20;529855;1093;117279;-61
2021/06/05 12:41:58;;;;;;;3.17;2.67;;;;;;;24.34;33.05;99742.19;512215;1092;116502;-62
2021/06/05 12:52:11;;;;;;;3.13;2.63;;;;;;;24.19;33.45;99742.17;514788;1093;116404;-61
2021/06/05 13:02:25;;;;;;;3.00;2.20;;;;;;;24.03;33.58;99720.88;517964;1091;116619;-61
2021/06/05 13:12:32;;;;;;;4.23;3.83;;;;;;;23.70;33.53;99723.87;529122;1092;116503;-61
2021/06/05 13:22:38;;;;;;;4.50;2.77;;;;;;;23.91;34.17;99715.11;526325;1092;116285;-61
2021/06/05 13:32:46;;;;;;;3.57;2.37;;;;;;;23.92;33.70;99722.14;528985;1092;117251;-60
2021/06/05 13:42:52;;;;;;;2.40;2.20;;;;;;;23.69;34.11;99714.16;515094;1093;116334;-62
2021/06/05 13:53:09;;;;;;;2.27;2.10;;;;;;;23.71;34.56;99704.91;525607;1092;118122;-56
2021/06/05 14:03:14;;;;;;;3.13;2.23;;;;;;;23.77;34.76;99722.95;519997;1092;116741;-57
2021/06/05 14:13:20;;;;;;;7.90;2.43;;;;;;;23.31;34.84;99694.35;514250;1092;116330;-59
2021/06/05 14:23:27;;;;;;;2.07;1.90;;;;;;;23.32;33.98;99690.69;522208;1092;116435;-59
2021/06/05 14:33:34;;;;;;;2.50;2.00;;;;;;;23.29;34.27;99703.60;529341;1092;116929;-59
2021/06/05 14:43:42;;;;;;;4.47;2.00;;;;;;;23.34;33.73;99701.20;527419;1093;117144;-59
2021/06/05 14:53:46;;;;;;;2.78;2.00;;;;;;;23.38;33.17;99697.17;524476;1093;116370;-58
2021/06/05 15:03:51;;;;;;;5.43;2.17;;;;;;;23.47;34.12;99700.61;518775;1092;116555;-58
2021/06/05 15:13:57;;;;;;;5.17;2.43;;;;;;;23.34;34.38;99712.77;512911;1092;116234;-58
2021/06/05 15:24:02;;;;;;;2.10;1.90;;;;;;;22.90;34.72;99703.47;512635;1092;117596;-59
2021/06/05 15:34:08;;;;;;;3.30;2.10;;;;;;;22.89;34.92;99696.45;521315;1092;116804;-58
2021/06/05 15:44:13;;;;;;;3.90;2.20;;;;;;;22.99;35.71;99706.95;522570;1093;116395;-58
2021/06/05 15:54:22;;;;;;;2.23;2.13;;;;;;;22.97;36.11;99698.27;529930;1092;116884;-58
2021/06/05 16:04:27;;;;;;;2.57;1.80;;;;;;;23.05;36.34;99700.05;517359;1093;116423;-61
2021/06/05 16:14:32;;;;;;;2.27;2.13;;;;;;;23.00;36.22;99705.94;513896;1093;116672;-60
2021/06/05 16:24:37;;;;;;;4.60;2.40;;;;;;;22.88;36.86;99704.67;520911;1093;115873;-60
2021/06/05 16:34:43;;;;;;;2.13;1.97;;;;;;;22.72;37.47;99703.73;529103;1092;116981;-60
2021/06/05 16:44:48;;;;;;;8.00;3.67;;;;;;;23.10;37.66;99708.38;511621;1093;116005;-59
2021/06/05 16:54:53;;;;;;;4.07;2.83;;;;;;;22.25;37.98;99708.91;511958;1092;116069;-62
2021/06/05 17:04:58;;;;;;;5.67;2.20;;;;;;;21.91;38.51;99711.85;512606;1092;117065;-62
2021/06/05 17:15:08;;;;;;;2.80;2.60;;;;;;;21.54;39.55;99722.88;523776;1093;116547;-62
2021/06/05 17:25:15;;;;;;;3.20;2.60;;;;;;;21.36;40.03;99716.84;524452;1092;115583;-60
2021/06/05 17:35:21;;;;;;;4.30;3.05;;;;;;;21.31;40.37;99732.55;525348;1093;116656;-61
2021/06/05 17:45:28;;;;;;;2.57;2.37;;;;;;;21.28;39.52;99731.84;515005;1093;116816;-60
2021/06/05 17:55:34;;;;;;;4.03;3.20;;;;;;;21.63;39.18;99733.54;530429;1092;115738;-60
2021/06/05 18:05:40;;;;;;;3.33;3.00;;;;;;;20.92;40.22;99742.78;529888;1093;117225;-59
2021/06/05 18:15:46;;;;;;;3.60;3.15;;;;;;;20.52;40.86;99742.44;516142;1092;116634;-59
2021/06/05 18:25:51;;;;;;;4.60;3.40;;;;;;;20.15;41.23;99741.77;517853;1092;116328;-59
2021/06/05 18:35:57;;;;;;;3.75;3.45;;;;;;;19.82;42.36;99762.82;523208;1092;116563;-61
2021/06/05 18:46:04;;;;;;;5.10;3.73;;;;;;;19.49;42.85;99767.01;524419;1092;116746;-61
2021/06/05 18:56:10;;;;;;;4.03;3.53;;;;;;;19.21;44.28;99773.22;530781;1092;116058;-61
2021/06/05 19:06:17;;;;;;;4.45;4.05;;;;;;;18.98;44.43;99783.44;523317;1092;117396;-60
2021/06/05 19:16:24;;;;;;;4.73;4.10;;;;;;;18.71;45.16;99785.93;523773;1093;116125;-62
2021/06/05 19:26:31;;;;;;;4.55;4.15;;;;;;;18.41;45.97;99803.83;520801;1092;116058;-61
2021/06/05 19:36:38;;;;;;;5.07;3.80;;;;;;;18.22;46.36;99817.16;530494;1093;116187;-60
2021/06/05 19:46:44;;;;;;;4.70;4.27;;;;;;;18.03;47.08;99821.50;530599;1092;116537;-62
2021/06/05 19:56:49;;;;;;;5.17;4.00;;;;;;;17.83;47.64;99834.75;523860;1092;116885;-61
2021/06/05 20:06:54;;;;;;;5.27;4.57;;;;;;;17.69;48.24;99836.02;527149;1092;116578;-61
2021/06/05 20:17:00;;;;;;;6.10;4.27;;;;;;;17.46;48.83;99844.23;500590;1092;20002954;-61
2021/06/05 20:27:08;;;;;;;6.60;4.27;;;;;;;17.29;49.61;99839.58;514395;1092;10001636;-63
2021/06/05 20:37:14;;;;;;;4.95;4.40;;;;;;;17.15;50.04;99836.34;530420;1093;116636;-61
2021/06/05 20:47:19;;;;;;;6.63;4.73;;;;;;;17.03;50.74;99832.11;530373;1093;116707;-61
2021/06/05 20:57:25;;;;;;;6.93;5.20;;;;;;;16.81;51.15;99829.49;521920;1090;116867;-61
2021/06/05 21:07:31;;;;;;;5.80;5.23;;;;;;;16.72;51.83;99842.69;522797;1092;116317;-60
2021/06/05 21:17:36;;;;;;;8.10;6.10;;;;;;;16.59;51.87;99845.57;515830;1091;116980;-57
2021/06/05 21:27:41;;;;;;;5.90;4.70;;;;;;;16.41;52.49;99840.85;516211;1092;172368;-60
2021/06/05 21:37:46;;;;;;;7.23;5.00;;;;;;;16.22;52.98;99844.22;527218;1092;116695;-60
2021/06/05 21:47:51;;;;;;;6.83;6.23;;;;;;;16.14;53.56;99847.52;527511;1092;117480;-61
2021/06/05 21:57:56;;;;;;;6.57;5.60;;;;;;;16.00;53.89;99845.19;528435;1092;116607;-60
2021/06/05 22:08:03;;;;;;;10.43;7.93;;;;;;;15.72;55.18;99839.47;523873;1092;116902;-60
2021/06/05 22:18:09;;;;;;;8.60;6.47;;;;;;;15.37;56.08;99846.67;523481;1092;116330;-61
2021/06/05 22:28:15;;;;;;;6.17;4.93;;;;;;;14.95;57.06;99853.44;523508;1092;117594;-61
2021/06/05 22:38:21;;;;;;;6.65;6.00;;;;;;;14.66;57.90;99855.67;523292;1093;116820;-60
2021/06/05 22:48:30;;;;;;;6.97;5.90;;;;;;;14.38;58.49;99850.70;525995;1092;116606;-61
2021/06/05 22:58:36;;;;;;;11.07;6.70;;;;;;;14.06;59.38;99848.67;526254;1092;116775;-61
2021/06/05 23:08:41;;;;;;;8.33;7.53;;;;;;;13.78;60.37;99852.52;511338;1092;116615;-60
2021/06/05 23:18:47;;;;;;;18.68;7.40;;;;;;;13.52;61.09;99842.94;524425;1091;116161;-60
2021/06/05 23:28:52;;;;;;;12.20;8.07;;;;;;;13.24;61.60;99839.59;517987;1093;116403;-60
2021/06/05 23:38:57;;;;;;;8.15;6.55;;;;;;;13.06;62.13;99839.11;518537;1092;116597;-60
2021/06/05 23:49:03;;;;;;;11.75;7.80;;;;;;;12.75;62.89;99834.20;515824;1092;117028;-61
2021/06/05 23:59:09;;;;;;;9.10;8.00;;;;;;;12.55;63.71;99840.84;514202;1091;116398;-61
